sensor_id;sensor_type;location;lat;lon;timestamp;temperature;humidity
50606;DHT22;36557;53.572;10.170;2023-03-13T00:01:13;6.40;99.90
50606;DHT22;36557;53.572;10.170;2023-03-13T00:03:39;6.30;99.90
50606;DHT22;36557;53.572;10.170;2023-03-13T00:06:05;6.40;99.90
50606;DHT22;36557;53.572;10.170;2023-03-13T00:08:31;6.30;99.90
50606;DHT22;36557;53.572;10.170;2023-03-13T00:10:57;6.40;99.90
50606;DHT22;36557;53.572;10.170;2023-03-13T00:13:26;6.40;99.90
50606;DHT22;36557;53.572;10.170;2023-03-13T00:16:08;6.40;99.90
50606;DHT22;36557;53.572;10.170;2023-03-13T00:18:35;6.40;99.90
50606;DHT22;36557;53.572;10.170;2023-03-13T00:21:03;6.30;99.90
50606;DHT22;36557;53.572;10.170;2023-03-13T00:23:29;6.40;99.90
50606;DHT22;36557;53.572;10.170;2023-03-13T00:26:00;6.40;99.90
50606;DHT22;36557;53.572;10.170;2023-03-13T00:28:30;6.40;99.90
50606;DHT22;36557;53.572;10.170;2023-03-13T00:31:09;6.40;99.90
50606;DHT22;36557;53.572;10.170;2023-03-13T00:33:36;6.50;99.90
50606;DHT22;36557;53.572;10.170;2023-03-13T00:36:04;6.40;99.90
50606;DHT22;36557;53.572;10.170;2023-03-13T00:38:31;6.40;99.90
50606;DHT22;36557;53.572;10.170;2023-03-13T00:41:04;6.40;99.90
50606;DHT22;36557;53.572;10.170;2023-03-13T00:43:30;6.40;99.90
50606;DHT22;36557;53.572;10.170;2023-03-13T00:45:56;6.40;99.90
50606;DHT22;36557;53.572;10.170;2023-03-13T00:48:22;6.30;99.90
50606;DHT22;36557;53.572;10.170;2023-03-13T00:50:48;6.30;99.90
50606;DHT22;36557;53.572;10.170;2023-03-13T00:53:14;6.30;99.90
50606;DHT22;36557;53.572;10.170;2023-03-13T00:56:00;6.30;99.90
50606;DHT22;36557;53.572;10.170;2023-03-13T00:58:28;6.30;99.90
50606;DHT22;36557;53.572;10.170;2023-03-13T01:00:55;6.30;99.90
50606;DHT22;36557;53.572;10.170;2023-03-13T01:03:22;6.30;99.90
50606;DHT22;36557;53.572;10.170;2023-03-13T01:06:00;6.30;99.90
50606;DHT22;36557;53.572;10.170;2023-03-13T01:08:28;6.30;99.90
50606;DHT22;36557;53.572;10.170;2023-03-13T01:11:03;6.20;99.90
50606;DHT22;36557;53.572;10.170;2023-03-13T01:13:30;6.30;99.90
50606;DHT22;36557;53.572;10.170;2023-03-13T01:16:19;6.20;99.90
50606;DHT22;36557;53.572;10.170;2023-03-13T01:18:50;6.20;99.90
50606;DHT22;36557;53.572;10.170;2023-03-13T01:21:17;6.20;99.90
50606;DHT22;36557;53.572;10.170;2023-03-13T01:23:44;6.20;99.90
50606;DHT22;36557;53.572;10.170;2023-03-13T01:26:10;6.10;99.90
50606;DHT22;36557;53.572;10.170;2023-03-13T01:28:37;6.20;99.90
50606;DHT22;36557;53.572;10.170;2023-03-13T01:31:22;6.30;99.90
50606;DHT22;36557;53.572;10.170;2023-03-13T01:33:50;6.20;99.90
50606;DHT22;36557;53.572;10.170;2023-03-13T01:36:17;6.30;99.90
50606;DHT22;36557;53.572;10.170;2023-03-13T01:38:46;6.30;99.90
50606;DHT22;36557;53.572;10.170;2023-03-13T01:41:12;6.30;99.90
50606;DHT22;36557;53.572;10.170;2023-03-13T01:43:38;6.20;99.90
50606;DHT22;36557;53.572;10.170;2023-03-13T01:48:51;6.20;99.90
50606;DHT22;36557;53.572;10.170;2023-03-13T01:54:13;6.40;99.90
50606;DHT22;36557;53.572;10.170;2023-03-13T01:59:14;6.30;99.90
50606;DHT22;36557;53.572;10.170;2023-03-13T02:01:41;6.30;99.90
50606;DHT22;36557;53.572;10.170;2023-03-13T02:04:08;6.40;99.90
50606;DHT22;36557;53.572;10.170;2023-03-13T02:06:36;6.40;99.90
50606;DHT22;36557;53.572;10.170;2023-03-13T02:09:08;6.40;99.90
50606;DHT22;36557;53.572;10.170;2023-03-13T02:11:47;6.30;99.90
50606;DHT22;36557;53.572;10.170;2023-03-13T02:14:16;6.30;99.90
50606;DHT22;36557;53.572;10.170;2023-03-13T02:16:43;6.20;99.90
50606;DHT22;36557;53.572;10.170;2023-03-13T02:19:46;6.30;99.90
50606;DHT22;36557;53.572;10.170;2023-03-13T02:22:31;6.30;99.90
50606;DHT22;36557;53.572;10.170;2023-03-13T02:27:44;6.40;99.90
50606;DHT22;36557;53.572;10.170;2023-03-13T02:30:11;6.40;99.90
50606;DHT22;36557;53.572;10.170;2023-03-13T02:32:38;6.40;99.90
50606;DHT22;36557;53.572;10.170;2023-03-13T02:35:08;6.40;99.90
50606;DHT22;36557;53.572;10.170;2023-03-13T02:37:35;6.30;99.90
50606;DHT22;36557;53.572;10.170;2023-03-13T02:40:06;6.40;99.90
50606;DHT22;36557;53.572;10.170;2023-03-13T02:42:36;6.40;99.90
50606;DHT22;36557;53.572;10.170;2023-03-13T02:45:03;6.30;99.90
50606;DHT22;36557;53.572;10.170;2023-03-13T02:47:29;6.30;99.90
50606;DHT22;36557;53.572;10.170;2023-03-13T02:49:55;6.40;99.90
50606;DHT22;36557;53.572;10.170;2023-03-13T02:52:25;6.40;99.90
50606;DHT22;36557;53.572;10.170;2023-03-13T02:54:55;6.40;99.90
50606;DHT22;36557;53.572;10.170;2023-03-13T02:57:26;6.40;99.90
50606;DHT22;36557;53.572;10.170;2023-03-13T02:59:52;6.40;99.90
50606;DHT22;36557;53.572;10.170;2023-03-13T03:02:17;6.50;99.90
50606;DHT22;36557;53.572;10.170;2023-03-13T03:04:43;6.50;99.90
50606;DHT22;36557;53.572;10.170;2023-03-13T03:07:09;6.50;99.90
50606;DHT22;36557;53.572;10.170;2023-03-13T03:09:35;6.50;99.90
50606;DHT22;36557;53.572;10.170;2023-03-13T03:12:01;6.50;99.90
50606;DHT22;36557;53.572;10.170;2023-03-13T03:14:26;6.50;99.90
50606;DHT22;36557;53.572;10.170;2023-03-13T03:16:52;6.50;99.90
50606;DHT22;36557;53.572;10.170;2023-03-13T03:19:18;6.50;99.90
50606;DHT22;36557;53.572;10.170;2023-03-13T03:21:44;6.50;99.90
50606;DHT22;36557;53.572;10.170;2023-03-13T03:24:10;6.50;99.90
50606;DHT22;36557;53.572;10.170;2023-03-13T03:26:36;6.50;99.90
50606;DHT22;36557;53.572;10.170;2023-03-13T03:29:02;6.50;99.90
50606;DHT22;36557;53.572;10.170;2023-03-13T03:31:29;6.50;99.90
50606;DHT22;36557;53.572;10.170;2023-03-13T03:33:55;6.60;99.90
50606;DHT22;36557;53.572;10.170;2023-03-13T03:36:22;6.50;99.90
50606;DHT22;36557;53.572;10.170;2023-03-13T03:38:49;6.50;99.90
50606;DHT22;36557;53.572;10.170;2023-03-13T03:41:15;6.50;99.90
50606;DHT22;36557;53.572;10.170;2023-03-13T03:43:42;6.50;99.90
50606;DHT22;36557;53.572;10.170;2023-03-13T03:46:08;6.50;99.90
50606;DHT22;36557;53.572;10.170;2023-03-13T03:48:34;6.50;99.90
50606;DHT22;36557;53.572;10.170;2023-03-13T03:51:00;6.50;99.90
50606;DHT22;36557;53.572;10.170;2023-03-13T03:53:26;6.50;99.90
50606;DHT22;36557;53.572;10.170;2023-03-13T03:55:53;6.50;99.90
50606;DHT22;36557;53.572;10.170;2023-03-13T03:58:19;6.60;99.90
50606;DHT22;36557;53.572;10.170;2023-03-13T04:00:47;6.50;99.90
50606;DHT22;36557;53.572;10.170;2023-03-13T04:03:14;6.60;99.90
50606;DHT22;36557;53.572;10.170;2023-03-13T04:05:40;6.50;99.90
50606;DHT22;36557;53.572;10.170;2023-03-13T04:08:06;6.60;99.90
50606;DHT22;36557;53.572;10.170;2023-03-13T04:10:32;6.50;99.90
50606;DHT22;36557;53.572;10.170;2023-03-13T04:12:58;6.60;99.90
50606;DHT22;36557;53.572;10.170;2023-03-13T04:15:23;6.60;99.90
50606;DHT22;36557;53.572;10.170;2023-03-13T04:17:49;6.60;99.90
50606;DHT22;36557;53.572;10.170;2023-03-13T04:20:15;6.60;99.90
50606;DHT22;36557;53.572;10.170;2023-03-13T04:22:41;6.60;99.90
50606;DHT22;36557;53.572;10.170;2023-03-13T04:25:08;6.70;99.90
50606;DHT22;36557;53.572;10.170;2023-03-13T04:27:34;6.70;99.90
50606;DHT22;36557;53.572;10.170;2023-03-13T04:30:00;6.60;99.90
50606;DHT22;36557;53.572;10.170;2023-03-13T04:32:26;6.60;99.90
50606;DHT22;36557;53.572;10.170;2023-03-13T04:34:52;6.70;99.90
50606;DHT22;36557;53.572;10.170;2023-03-13T04:37:18;6.60;99.90
50606;DHT22;36557;53.572;10.170;2023-03-13T04:39:44;6.60;99.90
50606;DHT22;36557;53.572;10.170;2023-03-13T04:42:11;6.70;99.90
50606;DHT22;36557;53.572;10.170;2023-03-13T04:44:37;6.60;99.90
50606;DHT22;36557;53.572;10.170;2023-03-13T04:47:03;6.60;99.90
50606;DHT22;36557;53.572;10.170;2023-03-13T04:49:29;6.70;99.90
50606;DHT22;36557;53.572;10.170;2023-03-13T04:51:55;6.70;99.90
50606;DHT22;36557;53.572;10.170;2023-03-13T04:54:21;6.60;99.90
50606;DHT22;36557;53.572;10.170;2023-03-13T04:56:46;6.70;99.90
50606;DHT22;36557;53.572;10.170;2023-03-13T04:59:13;6.80;99.90
50606;DHT22;36557;53.572;10.170;2023-03-13T05:01:40;6.80;99.90
50606;DHT22;36557;53.572;10.170;2023-03-13T05:04:06;6.70;99.90
50606;DHT22;36557;53.572;10.170;2023-03-13T05:06:32;6.80;99.90
50606;DHT22;36557;53.572;10.170;2023-03-13T05:08:58;6.90;99.90
50606;DHT22;36557;53.572;10.170;2023-03-13T05:11:24;6.80;99.90
50606;DHT22;36557;53.572;10.170;2023-03-13T05:13:50;6.80;99.90
50606;DHT22;36557;53.572;10.170;2023-03-13T05:16:15;6.90;99.90
50606;DHT22;36557;53.572;10.170;2023-03-13T05:18:41;6.80;99.90
50606;DHT22;36557;53.572;10.170;2023-03-13T05:21:07;6.90;99.90
50606;DHT22;36557;53.572;10.170;2023-03-13T05:23:33;6.80;99.90
50606;DHT22;36557;53.572;10.170;2023-03-13T05:25:59;6.90;99.90
50606;DHT22;36557;53.572;10.170;2023-03-13T05:28:25;6.90;99.90
50606;DHT22;36557;53.572;10.170;2023-03-13T05:30:51;6.90;99.90
50606;DHT22;36557;53.572;10.170;2023-03-13T05:33:17;6.90;99.90
50606;DHT22;36557;53.572;10.170;2023-03-13T05:35:44;6.90;99.90
50606;DHT22;36557;53.572;10.170;2023-03-13T05:38:11;6.90;99.90
50606;DHT22;36557;53.572;10.170;2023-03-13T05:40:36;7.00;99.90
50606;DHT22;36557;53.572;10.170;2023-03-13T05:43:02;7.00;99.90
50606;DHT22;36557;53.572;10.170;2023-03-13T05:45:28;7.00;99.90
50606;DHT22;36557;53.572;10.170;2023-03-13T05:47:54;7.00;99.90
50606;DHT22;36557;53.572;10.170;2023-03-13T05:50:20;7.00;99.90
50606;DHT22;36557;53.572;10.170;2023-03-13T05:52:46;6.90;99.90
50606;DHT22;36557;53.572;10.170;2023-03-13T05:55:11;7.00;99.90
50606;DHT22;36557;53.572;10.170;2023-03-13T05:57:37;7.00;99.90
50606;DHT22;36557;53.572;10.170;2023-03-13T06:00:04;7.00;99.90
50606;DHT22;36557;53.572;10.170;2023-03-13T06:02:30;7.00;99.90
50606;DHT22;36557;53.572;10.170;2023-03-13T06:04:56;7.00;99.90
50606;DHT22;36557;53.572;10.170;2023-03-13T06:07:21;7.00;99.90
50606;DHT22;36557;53.572;10.170;2023-03-13T06:09:47;7.00;99.90
50606;DHT22;36557;53.572;10.170;2023-03-13T06:12:13;7.00;99.90
50606;DHT22;36557;53.572;10.170;2023-03-13T06:14:38;7.10;99.90
50606;DHT22;36557;53.572;10.170;2023-03-13T06:17:05;7.10;99.90
50606;DHT22;36557;53.572;10.170;2023-03-13T06:19:30;7.10;99.90
50606;DHT22;36557;53.572;10.170;2023-03-13T06:21:56;7.10;99.90
50606;DHT22;36557;53.572;10.170;2023-03-13T06:24:22;7.10;99.90
50606;DHT22;36557;53.572;10.170;2023-03-13T06:26:49;7.20;99.90
50606;DHT22;36557;53.572;10.170;2023-03-13T06:31:41;7.20;99.90
50606;DHT22;36557;53.572;10.170;2023-03-13T06:34:11;7.30;99.90
50606;DHT22;36557;53.572;10.170;2023-03-13T06:36:37;7.30;99.90
50606;DHT22;36557;53.572;10.170;2023-03-13T06:39:03;7.40;99.90
50606;DHT22;36557;53.572;10.170;2023-03-13T06:41:29;7.30;99.90
50606;DHT22;36557;53.572;10.170;2023-03-13T06:43:55;7.50;99.90
50606;DHT22;36557;53.572;10.170;2023-03-13T06:46:22;7.50;99.90
50606;DHT22;36557;53.572;10.170;2023-03-13T06:48:49;7.50;99.90
50606;DHT22;36557;53.572;10.170;2023-03-13T06:51:17;7.60;99.90
50606;DHT22;36557;53.572;10.170;2023-03-13T06:53:44;7.60;99.90
50606;DHT22;36557;53.572;10.170;2023-03-13T06:56:10;7.60;99.90
50606;DHT22;36557;53.572;10.170;2023-03-13T06:58:36;7.60;99.90
50606;DHT22;36557;53.572;10.170;2023-03-13T07:01:09;7.60;99.90
50606;DHT22;36557;53.572;10.170;2023-03-13T07:03:36;7.70;99.90
50606;DHT22;36557;53.572;10.170;2023-03-13T07:06:02;7.70;99.90
50606;DHT22;36557;53.572;10.170;2023-03-13T07:08:28;7.70;99.90
50606;DHT22;36557;53.572;10.170;2023-03-13T07:10:58;7.70;99.90
50606;DHT22;36557;53.572;10.170;2023-03-13T07:13:24;7.80;99.90
50606;DHT22;36557;53.572;10.170;2023-03-13T07:15:50;7.80;99.90
50606;DHT22;36557;53.572;10.170;2023-03-13T07:18:16;7.90;99.90
50606;DHT22;36557;53.572;10.170;2023-03-13T07:20:42;7.90;99.90
50606;DHT22;36557;53.572;10.170;2023-03-13T07:23:08;8.00;99.90
50606;DHT22;36557;53.572;10.170;2023-03-13T07:25:34;8.10;99.90
50606;DHT22;36557;53.572;10.170;2023-03-13T07:28:00;8.00;99.90
50606;DHT22;36557;53.572;10.170;2023-03-13T07:30:26;8.10;99.90
50606;DHT22;36557;53.572;10.170;2023-03-13T07:32:52;8.20;99.90
50606;DHT22;36557;53.572;10.170;2023-03-13T07:35:18;8.10;99.90
50606;DHT22;36557;53.572;10.170;2023-03-13T07:37:43;8.20;99.90
50606;DHT22;36557;53.572;10.170;2023-03-13T07:40:10;8.20;99.90
50606;DHT22;36557;53.572;10.170;2023-03-13T07:42:39;8.20;99.90
50606;DHT22;36557;53.572;10.170;2023-03-13T07:45:06;8.30;99.90
50606;DHT22;36557;53.572;10.170;2023-03-13T07:47:35;8.30;99.90
50606;DHT22;36557;53.572;10.170;2023-03-13T07:50:01;8.40;99.90
50606;DHT22;36557;53.572;10.170;2023-03-13T07:52:27;8.40;99.90
50606;DHT22;36557;53.572;10.170;2023-03-13T07:54:53;8.40;99.90
50606;DHT22;36557;53.572;10.170;2023-03-13T07:57:19;8.50;99.90
50606;DHT22;36557;53.572;10.170;2023-03-13T07:59:45;8.50;99.90
50606;DHT22;36557;53.572;10.170;2023-03-13T08:02:11;8.60;99.90
50606;DHT22;36557;53.572;10.170;2023-03-13T08:04:39;8.70;99.90
50606;DHT22;36557;53.572;10.170;2023-03-13T08:07:09;8.60;99.90
50606;DHT22;36557;53.572;10.170;2023-03-13T08:09:35;8.60;99.90
50606;DHT22;36557;53.572;10.170;2023-03-13T08:12:08;8.70;99.90
50606;DHT22;36557;53.572;10.170;2023-03-13T08:14:33;8.70;99.90
50606;DHT22;36557;53.572;10.170;2023-03-13T08:16:59;8.80;99.90
50606;DHT22;36557;53.572;10.170;2023-03-13T08:19:25;8.90;99.90
50606;DHT22;36557;53.572;10.170;2023-03-13T08:21:50;8.90;99.90
50606;DHT22;36557;53.572;10.170;2023-03-13T08:24:16;9.00;99.90
50606;DHT22;36557;53.572;10.170;2023-03-13T08:26:42;9.10;99.90
50606;DHT22;36557;53.572;10.170;2023-03-13T08:29:12;9.20;99.90
50606;DHT22;36557;53.572;10.170;2023-03-13T08:31:48;9.30;99.90
50606;DHT22;36557;53.572;10.170;2023-03-13T08:34:17;9.40;99.90
50606;DHT22;36557;53.572;10.170;2023-03-13T08:36:43;9.60;99.90
50606;DHT22;36557;53.572;10.170;2023-03-13T08:39:16;9.70;99.90
50606;DHT22;36557;53.572;10.170;2023-03-13T08:41:42;9.70;99.90
50606;DHT22;36557;53.572;10.170;2023-03-13T08:44:14;9.80;99.90
50606;DHT22;36557;53.572;10.170;2023-03-13T08:46:40;9.80;99.90
50606;DHT22;36557;53.572;10.170;2023-03-13T08:49:07;10.00;99.90
50606;DHT22;36557;53.572;10.170;2023-03-13T08:51:33;9.90;99.90
50606;DHT22;36557;53.572;10.170;2023-03-13T08:54:00;10.10;99.90
50606;DHT22;36557;53.572;10.170;2023-03-13T08:56:27;10.00;99.90
50606;DHT22;36557;53.572;10.170;2023-03-13T08:58:56;10.20;99.90
50606;DHT22;36557;53.572;10.170;2023-03-13T09:01:25;10.10;99.90
50606;DHT22;36557;53.572;10.170;2023-03-13T09:03:51;10.20;99.90
50606;DHT22;36557;53.572;10.170;2023-03-13T09:06:17;10.30;99.90
50606;DHT22;36557;53.572;10.170;2023-03-13T09:08:43;10.40;99.90
50606;DHT22;36557;53.572;10.170;2023-03-13T09:11:12;10.50;99.90
50606;DHT22;36557;53.572;10.170;2023-03-13T09:13:41;10.50;99.90
50606;DHT22;36557;53.572;10.170;2023-03-13T09:16:10;10.70;99.90
50606;DHT22;36557;53.572;10.170;2023-03-13T09:18:37;10.70;99.90
50606;DHT22;36557;53.572;10.170;2023-03-13T09:21:09;10.80;99.90
50606;DHT22;36557;53.572;10.170;2023-03-13T09:23:35;10.90;99.90
50606;DHT22;36557;53.572;10.170;2023-03-13T09:26:00;10.90;99.90
50606;DHT22;36557;53.572;10.170;2023-03-13T09:28:26;11.00;99.90
50606;DHT22;36557;53.572;10.170;2023-03-13T09:30:53;11.00;99.90
50606;DHT22;36557;53.572;10.170;2023-03-13T09:33:20;11.10;99.90
50606;DHT22;36557;53.572;10.170;2023-03-13T09:35:48;11.10;99.90
50606;DHT22;36557;53.572;10.170;2023-03-13T09:38:18;11.20;99.90
50606;DHT22;36557;53.572;10.170;2023-03-13T09:40:46;11.20;99.90
50606;DHT22;36557;53.572;10.170;2023-03-13T09:43:35;11.30;99.90
50606;DHT22;36557;53.572;10.170;2023-03-13T09:46:07;11.20;99.90
50606;DHT22;36557;53.572;10.170;2023-03-13T09:48:44;11.20;99.90
50606;DHT22;36557;53.572;10.170;2023-03-13T09:51:41;11.20;99.90
50606;DHT22;36557;53.572;10.170;2023-03-13T09:56:51;11.40;99.90
50606;DHT22;36557;53.572;10.170;2023-03-13T09:59:39;11.40;99.90
50606;DHT22;36557;53.572;10.170;2023-03-13T10:02:25;11.50;99.90
50606;DHT22;36557;53.572;10.170;2023-03-13T10:05:22;11.40;99.90
50606;DHT22;36557;53.572;10.170;2023-03-13T10:07:49;11.50;99.90
50606;DHT22;36557;53.572;10.170;2023-03-13T10:10:20;11.60;99.90
50606;DHT22;36557;53.572;10.170;2023-03-13T10:12:51;11.70;99.90
50606;DHT22;36557;53.572;10.170;2023-03-13T10:18:30;11.80;99.90
50606;DHT22;36557;53.572;10.170;2023-03-13T10:20:59;11.70;99.90
50606;DHT22;36557;53.572;10.170;2023-03-13T10:23:50;11.80;99.90
50606;DHT22;36557;53.572;10.170;2023-03-13T10:26:22;11.70;99.90
50606;DHT22;36557;53.572;10.170;2023-03-13T10:29:00;11.80;99.90
50606;DHT22;36557;53.572;10.170;2023-03-13T10:31:31;12.00;99.90
50606;DHT22;36557;53.572;10.170;2023-03-13T10:34:17;12.00;99.90
50606;DHT22;36557;53.572;10.170;2023-03-13T10:36:48;12.00;99.90
50606;DHT22;36557;53.572;10.170;2023-03-13T10:39:16;12.00;99.90
50606;DHT22;36557;53.572;10.170;2023-03-13T10:41:42;12.00;99.90
50606;DHT22;36557;53.572;10.170;2023-03-13T10:44:19;12.30;99.90
50606;DHT22;36557;53.572;10.170;2023-03-13T10:46:47;12.40;99.90
50606;DHT22;36557;53.572;10.170;2023-03-13T10:49:21;12.50;99.90
50606;DHT22;36557;53.572;10.170;2023-03-13T10:51:53;12.70;99.90
50606;DHT22;36557;53.572;10.170;2023-03-13T10:54:33;12.70;99.90
50606;DHT22;36557;53.572;10.170;2023-03-13T10:57:28;12.90;99.90
50606;DHT22;36557;53.572;10.170;2023-03-13T10:59:54;13.00;99.90
50606;DHT22;36557;53.572;10.170;2023-03-13T11:02:27;13.00;99.90
50606;DHT22;36557;53.572;10.170;2023-03-13T11:04:56;13.00;99.90
50606;DHT22;36557;53.572;10.170;2023-03-13T11:07:33;13.00;99.90
50606;DHT22;36557;53.572;10.170;2023-03-13T11:10:03;13.00;99.90
50606;DHT22;36557;53.572;10.170;2023-03-13T11:12:45;12.90;99.90
50606;DHT22;36557;53.572;10.170;2023-03-13T11:15:17;12.90;99.90
50606;DHT22;36557;53.572;10.170;2023-03-13T11:18:00;12.80;99.90
50606;DHT22;36557;53.572;10.170;2023-03-13T11:20:39;12.80;99.90
50606;DHT22;36557;53.572;10.170;2023-03-13T11:23:29;12.90;99.90
50606;DHT22;36557;53.572;10.170;2023-03-13T11:31:11;13.30;99.90
50606;DHT22;36557;53.572;10.170;2023-03-13T11:33:45;13.80;99.90
50606;DHT22;36557;53.572;10.170;2023-03-13T11:36:20;13.90;99.90
50606;DHT22;36557;53.572;10.170;2023-03-13T11:42:02;13.80;99.90
50606;DHT22;36557;53.572;10.170;2023-03-13T11:44:36;13.80;99.90
50606;DHT22;36557;53.572;10.170;2023-03-13T11:55:27;13.60;99.90
50606;DHT22;36557;53.572;10.170;2023-03-13T12:01:16;13.70;99.90
50606;DHT22;36557;53.572;10.170;2023-03-13T12:09:30;14.60;99.90
50606;DHT22;36557;53.572;10.170;2023-03-13T12:12:03;14.60;99.90
50606;DHT22;36557;53.572;10.170;2023-03-13T12:14:40;14.60;99.90
50606;DHT22;36557;53.572;10.170;2023-03-13T12:22:40;15.00;99.90
50606;DHT22;36557;53.572;10.170;2023-03-13T12:27:51;15.00;99.90
50606;DHT22;36557;53.572;10.170;2023-03-13T12:30:34;15.20;99.90
50606;DHT22;36557;53.572;10.170;2023-03-13T12:33:22;15.20;99.90
50606;DHT22;36557;53.572;10.170;2023-03-13T12:38:47;15.00;99.90
50606;DHT22;36557;53.572;10.170;2023-03-13T12:41:18;15.10;99.90
50606;DHT22;36557;53.572;10.170;2023-03-13T12:43:47;15.20;99.90
50606;DHT22;36557;53.572;10.170;2023-03-13T12:54:26;15.50;99.90
50606;DHT22;36557;53.572;10.170;2023-03-13T12:59:32;15.40;99.90
50606;DHT22;36557;53.572;10.170;2023-03-13T13:02:00;15.40;99.90
50606;DHT22;36557;53.572;10.170;2023-03-13T13:04:31;15.50;99.90
50606;DHT22;36557;53.572;10.170;2023-03-13T13:07:06;15.80;99.90
50606;DHT22;36557;53.572;10.170;2023-03-13T13:10:10;16.00;99.90
50606;DHT22;36557;53.572;10.170;2023-03-13T13:12:41;16.00;99.90
50606;DHT22;36557;53.572;10.170;2023-03-13T13:15:13;16.30;99.90
50606;DHT22;36557;53.572;10.170;2023-03-13T13:18:15;16.40;99.90
50606;DHT22;36557;53.572;10.170;2023-03-13T13:23:40;15.90;99.90
50606;DHT22;36557;53.572;10.170;2023-03-13T13:28:58;16.10;99.90
50606;DHT22;36557;53.572;10.170;2023-03-13T13:34:53;15.80;99.90
50606;DHT22;36557;53.572;10.170;2023-03-13T13:39:49;15.70;99.90
50606;DHT22;36557;53.572;10.170;2023-03-13T13:47:28;15.90;99.90
50606;DHT22;36557;53.572;10.170;2023-03-13T13:50:00;16.00;99.90
50606;DHT22;36557;53.572;10.170;2023-03-13T13:52:37;16.10;99.90
50606;DHT22;36557;53.572;10.170;2023-03-13T13:58:10;16.00;99.90
50606;DHT22;36557;53.572;10.170;2023-03-13T14:00:40;15.90;99.90
50606;DHT22;36557;53.572;10.170;2023-03-13T14:03:20;15.90;99.90
50606;DHT22;36557;53.572;10.170;2023-03-13T14:05:48;16.00;99.90
50606;DHT22;36557;53.572;10.170;2023-03-13T14:08:36;16.00;99.90
50606;DHT22;36557;53.572;10.170;2023-03-13T14:11:24;16.00;99.90
50606;DHT22;36557;53.572;10.170;2023-03-13T14:14:17;16.10;99.90
50606;DHT22;36557;53.572;10.170;2023-03-13T14:16:48;16.00;99.90
50606;DHT22;36557;53.572;10.170;2023-03-13T14:21:46;16.00;99.90
50606;DHT22;36557;53.572;10.170;2023-03-13T14:24:15;15.90;99.90
50606;DHT22;36557;53.572;10.170;2023-03-13T14:26:42;15.80;99.90
50606;DHT22;36557;53.572;10.170;2023-03-13T14:29:15;15.80;99.90
50606;DHT22;36557;53.572;10.170;2023-03-13T14:31:50;15.90;99.90
50606;DHT22;36557;53.572;10.170;2023-03-13T14:34:16;15.90;99.90
50606;DHT22;36557;53.572;10.170;2023-03-13T14:36:51;15.90;99.90
50606;DHT22;36557;53.572;10.170;2023-03-13T14:39:36;16.00;99.90
50606;DHT22;36557;53.572;10.170;2023-03-13T14:42:10;16.00;99.90
50606;DHT22;36557;53.572;10.170;2023-03-13T14:44:36;16.00;99.90
50606;DHT22;36557;53.572;10.170;2023-03-13T14:49:46;16.10;99.90
50606;DHT22;36557;53.572;10.170;2023-03-13T14:52:19;16.00;99.90
50606;DHT22;36557;53.572;10.170;2023-03-13T14:54:57;16.00;99.90
50606;DHT22;36557;53.572;10.170;2023-03-13T14:57:26;16.00;99.90
50606;DHT22;36557;53.572;10.170;2023-03-13T15:00:39;16.00;99.90
50606;DHT22;36557;53.572;10.170;2023-03-13T15:02:39;16.00;99.90
50606;DHT22;36557;53.572;10.170;2023-03-13T15:05:06;16.00;99.90
50606;DHT22;36557;53.572;10.170;2023-03-13T15:07:52;16.00;99.90
50606;DHT22;36557;53.572;10.170;2023-03-13T15:10:31;15.90;99.90
50606;DHT22;36557;53.572;10.170;2023-03-13T15:12:57;15.90;99.90
50606;DHT22;36557;53.572;10.170;2023-03-13T15:15:24;15.90;99.90
50606;DHT22;36557;53.572;10.170;2023-03-13T15:17:50;15.90;99.90
50606;DHT22;36557;53.572;10.170;2023-03-13T15:20:16;15.80;99.90
50606;DHT22;36557;53.572;10.170;2023-03-13T15:22:44;15.90;99.90
50606;DHT22;36557;53.572;10.170;2023-03-13T15:25:21;16.00;99.90
50606;DHT22;36557;53.572;10.170;2023-03-13T15:27:48;15.90;99.90
50606;DHT22;36557;53.572;10.170;2023-03-13T15:30:15;15.80;99.90
50606;DHT22;36557;53.572;10.170;2023-03-13T15:32:42;15.70;99.90
50606;DHT22;36557;53.572;10.170;2023-03-13T15:37:51;15.80;99.90
50606;DHT22;36557;53.572;10.170;2023-03-13T15:40:17;15.70;99.90
50606;DHT22;36557;53.572;10.170;2023-03-13T15:42:44;15.70;99.90
50606;DHT22;36557;53.572;10.170;2023-03-13T15:45:10;15.80;99.90
50606;DHT22;36557;53.572;10.170;2023-03-13T15:47:36;15.70;99.90
50606;DHT22;36557;53.572;10.170;2023-03-13T15:50:02;15.70;99.90
50606;DHT22;36557;53.572;10.170;2023-03-13T15:52:28;15.70;99.90
50606;DHT22;36557;53.572;10.170;2023-03-13T15:54:54;15.60;99.90
50606;DHT22;36557;53.572;10.170;2023-03-13T15:57:23;15.60;99.90
50606;DHT22;36557;53.572;10.170;2023-03-13T15:59:51;15.70;99.90
50606;DHT22;36557;53.572;10.170;2023-03-13T16:02:19;15.70;99.90
50606;DHT22;36557;53.572;10.170;2023-03-13T16:04:45;15.70;99.90
50606;DHT22;36557;53.572;10.170;2023-03-13T16:07:13;15.60;99.90
50606;DHT22;36557;53.572;10.170;2023-03-13T16:09:41;15.50;99.90
50606;DHT22;36557;53.572;10.170;2023-03-13T16:12:08;15.60;99.90
50606;DHT22;36557;53.572;10.170;2023-03-13T16:14:34;15.50;99.90
50606;DHT22;36557;53.572;10.170;2023-03-13T16:17:09;15.60;99.90
50606;DHT22;36557;53.572;10.170;2023-03-13T16:19:36;15.70;99.90
50606;DHT22;36557;53.572;10.170;2023-03-13T16:22:02;15.60;99.90
50606;DHT22;36557;53.572;10.170;2023-03-13T16:24:28;15.60;99.90
50606;DHT22;36557;53.572;10.170;2023-03-13T16:26:54;15.40;99.90
50606;DHT22;36557;53.572;10.170;2023-03-13T16:29:19;15.50;99.90
50606;DHT22;36557;53.572;10.170;2023-03-13T16:31:45;15.40;99.90
50606;DHT22;36557;53.572;10.170;2023-03-13T16:34:11;15.40;99.90
50606;DHT22;36557;53.572;10.170;2023-03-13T16:36:37;15.40;99.90
50606;DHT22;36557;53.572;10.170;2023-03-13T16:39:05;15.30;99.90
50606;DHT22;36557;53.572;10.170;2023-03-13T16:41:33;15.30;99.90
50606;DHT22;36557;53.572;10.170;2023-03-13T16:43:59;15.20;99.90
50606;DHT22;36557;53.572;10.170;2023-03-13T16:46:34;15.20;99.90
50606;DHT22;36557;53.572;10.170;2023-03-13T16:48:59;15.10;99.90
50606;DHT22;36557;53.572;10.170;2023-03-13T16:51:27;15.10;99.90
50606;DHT22;36557;53.572;10.170;2023-03-13T16:53:54;15.10;99.90
50606;DHT22;36557;53.572;10.170;2023-03-13T16:56:30;15.10;99.90
50606;DHT22;36557;53.572;10.170;2023-03-13T16:58:58;15.00;99.90
50606;DHT22;36557;53.572;10.170;2023-03-13T17:01:26;14.90;99.90
50606;DHT22;36557;53.572;10.170;2023-03-13T17:03:54;14.80;99.90
50606;DHT22;36557;53.572;10.170;2023-03-13T17:06:40;14.80;99.90
50606;DHT22;36557;53.572;10.170;2023-03-13T17:09:15;14.80;99.90
50606;DHT22;36557;53.572;10.170;2023-03-13T17:11:42;14.90;99.90
50606;DHT22;36557;53.572;10.170;2023-03-13T17:14:08;14.70;99.90